茨城空港(百里飛行場)の過去48時間の天気

茨城空港(百里飛行場) (Hyakuri)

現在時刻: 9/16 12:11 JST (9/16 03:11 UTC) 以下の時間は現地時間です。

過去48時間のMETAR気象情報
時間 風向 風速(m/s) 視程 気温(℃) 湿度(%) 気圧(hPa) 天気現象
16 12:00 北北東 6 8000m 23 94 1001 弱いしゅう雨
16 11:00 北東 7 8000m 23 94 1002 弱いしゅう雨
16 10:49 北東 7 8000m 23 94 1002 弱いしゅう雨
16 10:00 北東 6 7000m 23 94 1003 弱いしゅう雨
16 09:34 北東 7 5000m 22 94 1003 しゅう雨 もや
16 09:00 北東 7 5000m 22 94 1003 弱いしゅう雨 もや
16 08:35 北東 6 5000m 22 94 1003 弱いしゅう雨 もや
16 08:00 北東 6 4000m 22 94 1003 しゅう雨 もや
16 07:49 北東 7 4000m 22 94 1003 しゅう雨 もや
16 07:42 北東 6 4000m 22 94 1003 弱いしゅう雨 もや
16 07:10 北東 7 4000m 22 94 1004 しゅう雨 もや
16 07:00 北東 6 4000m 22 94 1004 弱いしゅう雨 もや
16 06:00 北東 7 5000m 22 94 1004 弱いしゅう雨 もや
16 05:30 北東 7 4000m 22 94 1004 しゅう雨 もや
16 05:14 北東 7 4000m 22 94 1004 弱いしゅう雨 もや
16 05:00 北東 6 3000m 22 94 1004 弱いしゅう雨 もや
16 04:33 北東 6 2000m 22 94 1004 しゅう雨 もや
16 04:00 北北東 5 3000m 22 94 1004 弱いしゅう雨 もや
16 03:24 北東 5 2500m 22 94 1004 しゅう雨 もや
16 03:03 北北東 5 3000m 22 94 1004 しゅう雨 もや
16 02:04 北北東 6 4000m 22 94 1005 弱いしゅう雨 もや
16 02:00 北北東 5 5000m 22 94 1005 弱いしゅう雨 もや
16 01:00 北北東 6 4000m 22 94 1006 弱いしゅう雨 もや
16 00:49 北北東 6 4000m 22 94 1006 弱いしゅう雨 もや
16 00:00 北北東 5 5000m 22 94 1006 弱いしゅう雨 もや
15 23:39 北北東 6 7000m 22 94 1006 弱いしゅう雨
15 23:08 北北東 6 8000m 22 94 1007 弱いしゅう雨
15 23:00 北北東 6 10km以上 23 89 1007
15 22:00 北東 6 10km以上 23 94 1007
15 21:00 北東 7 10km以上 24 89 1008 弱いしゅう雨
15 20:45 北東 7 10km以上 24 89 1008 弱いしゅう雨
15 20:18 北東 6 10km以上 24 83 1008
15 20:00 北東 6 10km以上 24 78 1008
15 19:00 北東 5 10km以上 24 74 1008
15 18:00 東北東 5 10km以上 24 69 1008
15 17:00 東北東 5 10km以上 25 69 1008
15 16:00 東北東 6 10km以上 26 65 1008
15 15:00 東北東 6 10km以上 27 62 1008
15 14:26 東北東 6 10km以上 27 62 1008
15 14:00 東北東 6 10km以上 27 62 1008
15 13:00 5 10km以上 28 55 1009
15 12:00 東北東 4 10km以上 28 55 1009
15 11:00 北北東 4 10km以上 28 55 1010
15 10:22 北東 4 10km以上 27 54 1011
15 10:00 北東 4 10km以上 27 54 1011
15 09:06 北東 4 10km以上 26 58 1011
15 09:00 北北東 4 10km以上 26 58 1011
15 08:00 北北東 2 10km以上 24 69 1011
15 07:00 2 10km以上 21 88 1011
15 06:00 2 10km以上 18 94 1012
15 05:00 北北東 1 10km以上 18 94 1012 地霧
15 04:00 2 10km以上 18 94 1012
15 03:00 1 10km以上 19 94 1012
15 02:00 北北西 2 10km以上 19 94 1012
15 01:00 2 10km以上 20 94 1012
15 00:00 不定 1 10km以上 20 88 1012
14 23:50 不定 1 10km以上 21 88 1012
14 23:00 不定 1 10km以上 22 83 1013
14 22:00 不定 1 10km以上 22 88 1014
14 21:00 3 10km以上 22 88 1014
14 20:27 東北東 1 10km以上 22 88 1014
14 20:00 不定 1 10km以上 22 88 1014
14 19:00 東北東 2 10km以上 22 88 1013
14 18:00 2 10km以上 23 78 1013
14 17:31 3 10km以上 24 74 1013
14 17:00 3 10km以上 25 69 1013
14 16:00 東南東 4 10km以上 26 61 1013
14 15:28 4 10km以上 26 65 1013
14 15:00 東北東 4 10km以上 26 65 1013
14 14:00 3 10km以上 25 65 1013
14 13:00 北東 4 10km以上 26 65 1013
RJAH 160300Z 03011KT 8000 -SHRA FEW006 BKN008 OVC015 23/22 Q1001
RJAH 160200Z 04013KT 8000 -SHRA FEW006 BKN008 OVC015 23/22 Q1002
RJAH 160149Z 04014KT 8000 -SHRA FEW006 BKN008 OVC015 23/22 Q1002 RMK 2ST006 6ST008 8CU015 A2960
RJAH 160100Z 04012KT 7000 -SHRA FEW006 BKN008 OVC015 23/22 Q1003
RJAH 160034Z 04013KT 5000 SHRA BR FEW004 BKN006 OVC015 22/21 Q1003 RMK 2ST004 6ST006 8CU015 A2962
RJAH 160000Z 04013KT 5000 -SHRA BR FEW004 BKN006 OVC015 22/21 Q1003
RJAH 152335Z 04011KT 5000 -SHRA BR FEW004 BKN006 OVC015 22/21 Q1003 RMK 2ST004 6ST006 8CU015 A2964
RJAH 152300Z 04012KT 4000 SHRA BR FEW004 BKN006 OVC015 22/21 Q1003
RJAH 152249Z 04013KT 4000 SHRA BR FEW004 BKN006 OVC015 22/21 Q1003 RMK 2ST004 6ST006 8CU015 A2964
RJAH 152242Z 04012KT 4000 -SHRA BR FEW004 BKN006 OVC015 22/21 Q1003 RMK 2ST004 6ST006 8CU015 A2964
RJAH 152210Z 04013KT 4000 SHRA BR FEW004 BKN006 OVC015 22/21 Q1004 RMK 2ST004 6ST006 8CU015 A2965
RJAH 152200Z 04012KT 4000 -SHRA BR FEW004 BKN006 OVC015 22/21 Q1004
RJAH 152100Z 04014KT 5000 -SHRA BR SCT004 BKN006 OVC015 22/21 Q1004
RJAH 152030Z 04014KT 4000 SHRA BR SCT004 BKN006 OVC015 22/21 Q1004 RMK 3ST004 6ST006 8CU015 A2967
RJAH 152014Z 04013KT 4000 -SHRA BR SCT004 BKN006 OVC015 22/21 Q1004 RMK 3ST004 6ST006 8CU015 A2967
RJAH 152000Z 04011KT 3000 -SHRA BR SCT004 BKN006 OVC015 22/21 Q1004
RJAH 151933Z 04012KT 2000 SHRA BR FEW004 BKN006 OVC015 22/21 Q1004 RMK 2ST004 6ST006 8CU015 A2966 VIS SE-SW 1500M
RJAH 151900Z 03009KT 3000 -SHRA BR FEW004 BKN006 OVC015 22/21 Q1004
RJAH 151824Z 04010KT 2500 SHRA BR FEW004 BKN006 OVC015 22/21 Q1004 RMK 2ST004 6ST006 8CU015 A2967 VIS SE-SW 2000M
RJAH 151803Z 02010KT 3000 SHRA BR FEW004 BKN006 OVC015 22/21 Q1004 RMK 1ST004 5ST006 8CU015 A2967
RJAH 151704Z 02011KT 4000 -SHRA BR FEW004 BKN006 OVC015 22/21 Q1005 RMK 2ST004 6ST006 8CU015 A2969
RJAH 151700Z 03010KT 5000 -SHRA BR FEW004 BKN006 OVC015 22/21 Q1005
RJAH 151600Z 03011KT 4000 -SHRA BR SCT004 BKN006 OVC015 22/21 Q1006
RJAH 151549Z 03011KT 4000 -SHRA BR SCT004 BKN006 OVC015 22/21 Q1006 RMK 3ST004 6ST006 8CU015 A2971
RJAH 151500Z 03010KT 5000 -SHRA BR SCT004 BKN006 BKN015 22/21 Q1006
RJAH 151439Z 02011KT 7000 -SHRA SCT005 BKN006 BKN015 22/21 Q1006 RMK 3ST005 6ST006 7CU015 A2973
RJAH 151408Z 03011KT 8000 -SHRA SCT005 BKN006 BKN020 22/21 Q1007 RMK 3ST005 6ST006 7CU020 A2974
RJAH 151400Z 03011KT 9999 SCT005 BKN006 BKN020 23/21 Q1007
RJAH 151300Z 04012KT 9999 FEW005 BKN006 BKN020 23/22 Q1007
RJAH 151200Z 05013KT 9999 -SHRA SCT006 BKN008 BKN030 24/22 Q1008
RJAH 151145Z 05013KT 9999 -SHRA FEW006 BKN008 BKN030 24/22 Q1008 RMK 1ST006 6ST008 7CU030 A2978
RJAH 151118Z 05012KT 9999 FEW008 BKN012 BKN040 24/21 Q1008 RMK 1ST008 5CU012 5SC040 A2979
RJAH 151100Z 05012KT 9999 FEW012 BKN040 24/20 Q1008
RJAH 151000Z 05009KT 9999 FEW020 BKN040 24/19 Q1008
RJAH 150900Z 06009KT 9999 FEW020 BKN050 24/18 Q1008
RJAH 150800Z 06009KT 9999 FEW020 BKN050 25/19 Q1008
RJAH 150700Z 07011KT 9999 FEW020 BKN050 26/19 Q1008
RJAH 150600Z 07011KT 040V100 9999 FEW020 BKN050 27/19 Q1008
RJAH 150526Z 06011KT 9999 FEW020 BKN060 27/19 Q1008 RMK 1CU020 5SC060 A2978
RJAH 150500Z 06011KT 030V090 9999 FEW020 SCT060 27/19 Q1008
RJAH 150400Z 08010KT 9999 FEW020 28/18 Q1009
RJAH 150300Z 07008KT 030V130 9999 FEW020 28/18 Q1009
RJAH 150200Z 03008KT 350V050 9999 FEW020 28/18 Q1010
RJAH 150122Z 04008KT 350V090 9999 FEW020 SCT060 27/17 Q1011 RMK 1CU020 3SC060 A2986
RJAH 150100Z 05008KT 9999 FEW020 BKN060 27/17 Q1011
RJAH 150006Z 04007KT 010V070 9999 FEW020 BKN060 26/17 Q1011 RMK 1CU020 5SC060 A2988
RJAH 150000Z 02008KT 9999 FEW020 SCT060 26/17 Q1011
RJAH 142300Z 02004KT 340V060 9999 FEW020 24/18 Q1011
RJAH 142200Z 36004KT 9999 FEW020 21/19 Q1011
RJAH 142100Z 01003KT 9999 FEW020 18/17 Q1012
RJAH 142000Z 02002KT 9999 MIFG FEW040 18/17 Q1012
RJAH 141900Z 01003KT 9999 FEW060 18/17 Q1012
RJAH 141800Z 36002KT 9999 FEW060 19/18 Q1012
RJAH 141700Z 34003KT 9999 FEW060 19/18 Q1012
RJAH 141600Z 36003KT 9999 FEW060 20/19 Q1012
RJAH 141500Z VRB02KT 9999 FEW060 20/18 Q1012
RJAH 141450Z VRB02KT 9999 FEW060 21/19 Q1012 RMK 2SC060 A2991
RJAH 141400Z VRB01KT 9999 FEW030 BKN060 22/19 Q1013
RJAH 141300Z VRB01KT 9999 FEW030 BKN050 22/20 Q1014
RJAH 141200Z 08005KT 9999 FEW030 BKN050 22/20 Q1014
RJAH 141127Z 07002KT 9999 FEW030 BKN040 22/20 Q1014 RMK 1CU030 5SC040 A2995
RJAH 141100Z VRB02KT 9999 FEW030 SCT040 22/20 Q1014
RJAH 141000Z 07004KT 9999 FEW030 BKN040 22/20 Q1013
RJAH 140900Z 08004KT 9999 FEW030 BKN040 23/19 Q1013
RJAH 140831Z 08005KT 9999 FEW030 BKN040 24/19 Q1013 RMK 1CU030 5SC040 A2992
RJAH 140800Z 10005KT 9999 FEW030 SCT070 25/19 Q1013
RJAH 140700Z 11007KT 070V150 9999 FEW030 SCT070 26/18 Q1013
RJAH 140628Z 08007KT 050V110 9999 FEW030 SCT070 26/19 Q1013 RMK 1CU030 4AC070 A2991
RJAH 140600Z 07007KT 9999 FEW030 BKN070 26/19 Q1013
RJAH 140500Z 08006KT 9999 FEW030 BKN060 25/18 Q1013
RJAH 140400Z 04007KT 010V080 9999 FEW025 BKN060 26/19 Q1013